createdAt,value
2022-12-04T00:00:45.708Z,18.40
2022-12-04T00:03:22.602Z,18.77
2022-12-04T00:06:02.445Z,18.50
2022-12-04T00:08:32.470Z,18.77
2022-12-04T00:11:04.005Z,18.93
2022-12-04T00:13:34.507Z,18.80
2022-12-04T00:16:06.590Z,18.00
2022-12-04T00:18:36.889Z,16.40
2022-12-04T00:21:08.332Z,18.30
2022-12-04T00:23:39.903Z,16.80
2022-12-04T00:26:11.634Z,16.45
2022-12-04T00:28:42.570Z,16.40
2022-12-04T00:31:16.858Z,15.17
2022-12-04T00:33:46.799Z,15.93
2022-12-04T00:36:19.589Z,15.23
2022-12-04T00:38:49.403Z,15.95
2022-12-04T00:41:22.298Z,14.93
2022-12-04T00:43:52.836Z,13.10
2022-12-04T00:46:23.607Z,14.23
2022-12-04T00:48:54.047Z,14.90
2022-12-04T00:51:25.744Z,13.63
2022-12-04T00:53:56.025Z,14.73
2022-12-04T00:56:27.496Z,13.73
2022-12-04T00:58:59.294Z,14.50
2022-12-04T01:01:29.426Z,13.15
2022-12-04T01:03:59.256Z,14.77
2022-12-04T01:06:30.927Z,13.47
2022-12-04T01:09:02.392Z,14.10
2022-12-04T01:11:33.283Z,13.65
2022-12-04T01:14:03.104Z,14.83
2022-12-04T01:16:35.610Z,13.40
2022-12-04T01:19:06.698Z,13.37
2022-12-04T01:21:37.215Z,14.03
2022-12-04T01:24:09.176Z,13.80
2022-12-04T01:26:38.963Z,12.70
2022-12-04T01:29:10.044Z,14.00
2022-12-04T01:31:39.804Z,12.80
2022-12-04T01:34:09.458Z,12.93
2022-12-04T01:36:39.645Z,12.00
2022-12-04T01:39:09.305Z,12.07
2022-12-04T01:41:38.987Z,12.23
2022-12-04T01:44:17.744Z,12.60
2022-12-04T01:46:53.261Z,11.43
2022-12-04T01:49:29.850Z,12.03
2022-12-04T01:52:02.282Z,11.40
2022-12-04T01:57:07.483Z,10.77
2022-12-04T01:59:43.254Z,10.80
2022-12-04T02:02:15.469Z,10.63
2022-12-04T02:04:47.689Z,10.30
2022-12-04T02:07:17.507Z,10.33
2022-12-04T02:09:53.686Z,10.50
2022-12-04T02:12:33.219Z,10.17
2022-12-04T02:15:10.067Z,10.77
2022-12-04T02:17:45.244Z,9.43
2022-12-04T02:20:26.490Z,10.07
2022-12-04T02:23:19.790Z,9.63
2022-12-04T02:26:00.358Z,9.23
2022-12-04T02:28:43.848Z,9.03
2022-12-04T02:31:19.178Z,8.70
2022-12-04T02:33:56.780Z,8.50
2022-12-04T02:36:31.813Z,8.20
2022-12-04T02:39:08.112Z,7.23
2022-12-04T02:41:42.737Z,7.10
2022-12-04T02:44:16.592Z,8.40
2022-12-04T02:46:48.950Z,7.37
2022-12-04T02:49:24.306Z,8.37
2022-12-04T02:51:55.476Z,7.97
2022-12-04T02:54:31.091Z,8.77
2022-12-04T02:57:03.061Z,8.33
2022-12-04T02:59:36.851Z,8.13
2022-12-04T03:02:14.142Z,8.53
2022-12-04T03:04:50.596Z,9.43
2022-12-04T03:07:25.827Z,8.60
2022-12-04T03:10:00.050Z,9.23
2022-12-04T03:12:41.805Z,8.40
2022-12-04T03:15:16.836Z,9.17
2022-12-04T03:17:54.195Z,8.57
2022-12-04T03:20:25.417Z,9.77
2022-12-04T03:22:59.729Z,8.60
2022-12-04T03:25:36.218Z,9.20
2022-12-04T03:28:11.193Z,9.80
2022-12-04T03:30:49.898Z,10.13
2022-12-04T03:33:25.943Z,9.20
2022-12-04T03:36:05.057Z,9.50
2022-12-04T03:38:39.959Z,9.57
2022-12-04T03:41:19.838Z,9.73
2022-12-04T03:43:53.143Z,9.63
2022-12-04T03:46:30.037Z,9.67
2022-12-04T03:49:08.061Z,9.13
2022-12-04T03:51:43.328Z,9.87
2022-12-04T03:54:20.381Z,9.30
2022-12-04T03:56:57.209Z,9.07
2022-12-04T03:59:29.533Z,9.00
2022-12-04T04:02:03.594Z,9.10
2022-12-04T04:04:36.981Z,8.80
2022-12-04T04:07:12.934Z,8.53
2022-12-04T04:09:48.246Z,7.90
2022-12-04T04:12:20.871Z,8.85
2022-12-04T04:15:12.591Z,8.70
2022-12-04T04:18:03.557Z,8.67
2022-12-04T04:20:56.017Z,8.50
2022-12-04T04:23:48.041Z,8.63
2022-12-04T04:26:18.667Z,9.45
2022-12-04T04:28:48.241Z,8.80
2022-12-04T04:31:24.317Z,10.00
2022-12-04T04:34:00.113Z,9.87
2022-12-04T04:36:42.154Z,9.23
2022-12-04T04:39:19.750Z,9.05
2022-12-04T04:41:55.488Z,9.60
2022-12-04T04:44:33.246Z,8.93
2022-12-04T04:47:07.036Z,8.77
2022-12-04T04:49:39.936Z,8.57
2022-12-04T04:52:10.072Z,8.63
2022-12-04T04:54:40.946Z,9.20
2022-12-04T04:57:10.529Z,9.00
2022-12-04T04:59:40.115Z,8.63
2022-12-04T05:02:10.869Z,8.53
2022-12-04T05:04:40.483Z,8.10
2022-12-04T05:07:09.840Z,8.77
2022-12-04T05:09:41.443Z,9.10
2022-12-04T05:12:11.271Z,8.93
2022-12-04T05:14:40.941Z,8.70
2022-12-04T05:17:12.797Z,8.80
2022-12-04T05:19:56.531Z,8.10
2022-12-04T05:22:30.183Z,9.27
2022-12-04T05:25:01.274Z,9.77
2022-12-04T05:27:31.796Z,9.37
2022-12-04T05:30:01.124Z,9.23
2022-12-04T05:32:31.059Z,9.57
2022-12-04T05:35:01.121Z,9.53
2022-12-04T05:37:31.412Z,10.47
2022-12-04T05:40:00.951Z,10.27
2022-12-04T05:42:30.436Z,10.37
2022-12-04T05:44:59.911Z,10.50
2022-12-04T05:47:29.432Z,9.07
2022-12-04T05:49:58.852Z,10.80
2022-12-04T05:52:28.465Z,10.13
2022-12-04T05:55:08.042Z,10.03
2022-12-04T05:57:40.876Z,10.17
2022-12-04T06:00:14.285Z,10.73
2022-12-04T06:02:44.090Z,10.77
2022-12-04T06:05:14.172Z,11.33
2022-12-04T06:07:43.795Z,11.00
2022-12-04T06:10:13.302Z,12.00
2022-12-04T06:12:42.946Z,11.53
2022-12-04T06:15:12.953Z,11.00
2022-12-04T06:17:42.305Z,11.63
2022-12-04T06:20:13.408Z,11.07
2022-12-04T06:22:43.015Z,11.60
2022-12-04T06:25:12.650Z,10.93
2022-12-04T06:27:44.074Z,11.97
2022-12-04T06:30:14.460Z,10.77
2022-12-04T06:32:44.127Z,11.60
2022-12-04T06:35:13.596Z,11.97
2022-12-04T06:37:43.255Z,12.37
2022-12-04T06:40:15.949Z,10.07
2022-12-04T06:42:45.407Z,11.23
2022-12-04T06:45:15.215Z,10.87
2022-12-04T06:47:44.674Z,11.67
2022-12-04T06:50:14.351Z,11.67
2022-12-04T06:52:44.149Z,11.83
2022-12-04T06:55:13.681Z,11.30
2022-12-04T06:57:43.246Z,12.17
2022-12-04T07:00:14.853Z,13.07
2022-12-04T07:02:44.557Z,12.30
2022-12-04T07:05:14.383Z,12.70
2022-12-04T07:07:44.878Z,12.73
2022-12-04T07:10:14.479Z,12.00
2022-12-04T07:12:44.161Z,11.43
2022-12-04T07:15:13.689Z,12.50
2022-12-04T07:17:44.965Z,12.87
2022-12-04T07:20:15.600Z,12.27
2022-12-04T07:23:28.353Z,12.63
2022-12-04T07:25:58.136Z,14.03
2022-12-04T07:28:27.625Z,12.30
2022-12-04T07:31:14.613Z,11.23
2022-12-04T07:33:58.693Z,11.70
2022-12-04T07:36:32.925Z,10.97
2022-12-04T07:39:02.323Z,11.73
2022-12-04T07:41:32.403Z,11.70
2022-12-04T07:44:08.590Z,11.33
2022-12-04T07:46:38.239Z,10.90
2022-12-04T07:49:07.690Z,11.30
2022-12-04T07:51:37.229Z,13.13
2022-12-04T07:54:08.366Z,12.30
2022-12-04T07:56:38.004Z,11.63
2022-12-04T07:59:10.615Z,12.00
2022-12-04T08:04:11.828Z,10.23
2022-12-04T08:06:41.552Z,10.65
2022-12-04T08:09:11.190Z,11.77
2022-12-04T08:11:42.149Z,11.43
2022-12-04T08:14:16.462Z,11.07
2022-12-04T08:16:51.066Z,11.13
2022-12-04T08:19:22.952Z,10.90
2022-12-04T08:21:53.705Z,10.37
2022-12-04T08:24:24.416Z,10.47
2022-12-04T08:26:53.978Z,11.73
2022-12-04T08:29:23.721Z,11.10
2022-12-04T08:31:53.475Z,12.00
2022-12-04T08:34:26.223Z,12.23
2022-12-04T08:36:55.938Z,12.23
2022-12-04T08:39:30.954Z,11.90
2022-12-04T08:42:00.465Z,11.70
2022-12-04T08:44:30.064Z,12.43
2022-12-04T08:46:59.587Z,11.53
2022-12-04T08:49:29.864Z,11.00
2022-12-04T08:51:59.490Z,10.97
2022-12-04T08:54:34.485Z,10.53
2022-12-04T08:57:06.098Z,10.03
2022-12-04T08:59:35.582Z,11.20
2022-12-04T09:02:05.282Z,10.27
2022-12-04T09:04:35.892Z,10.20
2022-12-04T09:07:05.615Z,11.37
2022-12-04T09:09:36.067Z,10.70
2022-12-04T09:12:05.547Z,11.50
2022-12-04T09:14:35.678Z,10.23
2022-12-04T09:17:05.162Z,11.00
2022-12-04T09:19:35.887Z,10.63
2022-12-04T09:22:05.347Z,10.67
2022-12-04T09:24:35.022Z,10.30
2022-12-04T09:27:05.921Z,10.73
2022-12-04T09:29:38.651Z,9.73
2022-12-04T09:32:08.135Z,10.80
2022-12-04T09:34:38.134Z,10.43
2022-12-04T09:37:07.963Z,9.43
2022-12-04T09:39:37.682Z,9.90
2022-12-04T09:42:21.834Z,9.70
2022-12-04T09:44:59.001Z,9.23
2022-12-04T09:47:35.283Z,9.50
2022-12-04T09:50:12.513Z,9.67
2022-12-04T09:52:51.238Z,9.27
2022-12-04T09:55:27.425Z,9.80
2022-12-04T09:58:02.487Z,10.47
2022-12-04T10:00:36.800Z,10.40
2022-12-04T10:03:13.867Z,10.30
2022-12-04T10:05:57.479Z,9.83
2022-12-04T10:08:29.714Z,9.90
2022-12-04T10:13:53.618Z,10.60
2022-12-04T10:16:30.620Z,10.70
2022-12-04T10:19:09.416Z,10.47
2022-12-04T10:21:50.803Z,10.60
2022-12-04T10:24:37.734Z,10.33
2022-12-04T10:27:16.400Z,9.80
2022-12-04T10:29:53.416Z,9.53
2022-12-04T10:32:26.965Z,9.60
2022-12-04T10:35:00.674Z,10.37
2022-12-04T10:37:32.753Z,10.60
2022-12-04T10:40:12.021Z,10.43
2022-12-04T10:42:49.416Z,10.20
2022-12-04T10:45:20.821Z,10.30
2022-12-04T10:47:51.499Z,10.30
2022-12-04T10:50:24.338Z,9.10
2022-12-04T10:52:58.534Z,10.53
2022-12-04T10:55:34.003Z,9.47
2022-12-04T10:58:03.475Z,9.30
2022-12-04T11:00:36.064Z,10.40
2022-12-04T11:03:32.090Z,9.70
2022-12-04T11:06:05.794Z,9.00
2022-12-04T11:08:39.478Z,9.73
2022-12-04T11:11:12.195Z,9.47
2022-12-04T11:13:42.899Z,10.63
2022-12-04T11:16:34.949Z,10.80
2022-12-04T11:19:18.827Z,10.28
2022-12-04T11:21:49.643Z,10.63
2022-12-04T11:24:25.222Z,10.73
2022-12-04T11:26:56.063Z,10.90
2022-12-04T11:29:33.261Z,12.47
2022-12-04T11:32:07.947Z,11.80
2022-12-04T11:34:41.932Z,12.07
2022-12-04T11:37:22.805Z,10.93
2022-12-04T11:39:54.588Z,12.10
2022-12-04T11:42:27.128Z,12.98
2022-12-04T11:47:29.581Z,11.07
2022-12-04T11:50:12.555Z,11.10
2022-12-04T11:52:59.266Z,10.37
2022-12-04T11:55:40.416Z,11.70
2022-12-04T11:58:28.125Z,10.77
2022-12-04T12:01:09.950Z,11.60
2022-12-04T12:03:46.120Z,10.38
2022-12-04T12:06:30.499Z,11.80
2022-12-04T12:09:22.433Z,12.00
2022-12-04T12:12:02.580Z,11.20
2022-12-04T12:14:40.528Z,11.17
2022-12-04T12:17:21.388Z,10.50
2022-12-04T12:20:06.416Z,10.53
2022-12-04T12:23:10.427Z,10.47
2022-12-04T12:25:51.896Z,11.10
2022-12-04T12:28:44.207Z,11.57
2022-12-04T12:31:33.968Z,11.63
2022-12-04T12:34:12.061Z,10.97
2022-12-04T12:36:47.336Z,11.30
2022-12-04T12:39:24.782Z,10.97
2022-12-04T12:41:57.316Z,10.80
2022-12-04T12:44:41.038Z,12.20
2022-12-04T12:47:16.776Z,11.30
2022-12-04T12:49:51.612Z,10.83
2022-12-04T12:52:30.884Z,12.57
2022-12-04T12:55:10.628Z,11.80
2022-12-04T12:57:43.313Z,11.93
2022-12-04T13:00:18.541Z,11.17
2022-12-04T13:02:53.816Z,11.10
2022-12-04T13:05:30.331Z,12.13
2022-12-04T13:08:11.082Z,11.43
2022-12-04T13:10:48.147Z,10.90
2022-12-04T13:13:24.168Z,11.17
2022-12-04T13:15:59.497Z,11.60
2022-12-04T13:18:33.760Z,10.43
2022-12-04T13:21:06.693Z,10.97
2022-12-04T13:23:52.838Z,11.03
2022-12-04T13:26:44.853Z,10.57
2022-12-04T13:29:38.126Z,11.00
2022-12-04T13:32:28.923Z,11.17
2022-12-04T13:35:09.635Z,11.60
2022-12-04T13:37:58.277Z,12.17
2022-12-04T13:40:36.245Z,11.80
2022-12-04T13:43:24.776Z,12.40
2022-12-04T13:45:56.663Z,12.40
2022-12-04T13:48:32.058Z,11.23
2022-12-04T13:51:34.453Z,12.33
2022-12-04T13:54:22.616Z,11.90
2022-12-04T13:56:55.443Z,11.90
2022-12-04T13:59:36.734Z,12.47
2022-12-04T14:02:24.346Z,12.60
2022-12-04T14:04:59.024Z,11.67
2022-12-04T14:07:33.336Z,13.30
2022-12-04T14:10:12.620Z,12.70
2022-12-04T14:12:49.218Z,12.97
2022-12-04T14:15:24.453Z,12.67
2022-12-04T14:18:16.240Z,13.17
2022-12-04T14:20:57.289Z,13.43
2022-12-04T14:23:35.319Z,13.67
2022-12-04T14:26:05.937Z,13.37
2022-12-04T14:28:43.461Z,15.03
2022-12-04T14:31:34.248Z,14.47
2022-12-04T14:34:15.229Z,15.33
2022-12-04T14:36:51.810Z,15.47
2022-12-04T14:39:27.405Z,16.63
2022-12-04T14:42:12.203Z,15.90
2022-12-04T14:44:45.287Z,17.47
2022-12-04T14:47:26.115Z,17.30
2022-12-04T14:50:20.217Z,16.40
2022-12-04T14:53:00.515Z,16.27
2022-12-04T14:55:39.100Z,18.43
2022-12-04T14:58:34.420Z,16.45
2022-12-04T15:01:07.053Z,17.30
2022-12-04T15:03:44.714Z,17.00
2022-12-04T15:06:21.109Z,17.03
2022-12-04T15:09:13.865Z,17.80
2022-12-04T15:14:42.648Z,17.73
2022-12-04T15:17:18.350Z,16.53
2022-12-04T15:19:48.015Z,19.23
2022-12-04T15:22:23.694Z,18.47
2022-12-04T15:24:55.094Z,18.10
2022-12-04T15:27:32.482Z,18.33
2022-12-04T15:30:04.057Z,18.10
2022-12-04T15:32:33.904Z,17.33
2022-12-04T15:35:08.668Z,16.47
2022-12-04T15:37:40.814Z,16.27
2022-12-04T15:40:22.067Z,15.70
2022-12-04T15:42:53.315Z,16.73
2022-12-04T15:45:33.846Z,16.13
2022-12-04T15:48:04.576Z,15.80
2022-12-04T15:50:35.489Z,15.10
2022-12-04T15:53:16.946Z,14.97
2022-12-04T15:55:52.367Z,16.30
2022-12-04T15:58:26.701Z,16.67
2022-12-04T16:00:58.747Z,16.73
2022-12-04T16:03:32.011Z,14.57
2022-12-04T16:06:16.263Z,16.67
2022-12-04T16:08:48.066Z,14.77
2022-12-04T16:14:14.953Z,14.07
2022-12-04T16:16:49.406Z,14.13
2022-12-04T16:19:30.148Z,14.93
2022-12-04T16:22:00.917Z,13.23
2022-12-04T16:24:32.411Z,14.00
2022-12-04T16:27:04.193Z,13.23
2022-12-04T16:29:33.624Z,13.30
2022-12-04T16:32:03.787Z,15.00
2022-12-04T16:34:34.475Z,14.50
2022-12-04T16:37:11.918Z,14.93
2022-12-04T16:39:42.003Z,14.37
2022-12-04T16:42:20.462Z,15.20
2022-12-04T16:44:51.209Z,15.90
2022-12-04T16:47:21.766Z,16.53
2022-12-04T16:49:52.824Z,17.10
2022-12-04T16:52:22.782Z,15.20
2022-12-04T16:54:53.647Z,15.33
2022-12-04T16:57:23.567Z,16.00
2022-12-04T16:59:53.145Z,17.70
2022-12-04T17:02:26.875Z,17.87
2022-12-04T17:04:58.125Z,16.77
2022-12-04T17:07:31.048Z,17.43
2022-12-04T17:10:02.232Z,15.80
2022-12-04T17:12:32.551Z,17.10
2022-12-04T17:15:02.261Z,16.57
2022-12-04T17:17:32.513Z,17.53
2022-12-04T17:20:02.364Z,17.33
2022-12-04T17:22:32.552Z,18.37
2022-12-04T17:25:04.739Z,18.17
2022-12-04T17:27:36.565Z,17.70
2022-12-04T17:30:08.727Z,17.63
2022-12-04T17:32:39.418Z,17.13
2022-12-04T17:35:12.074Z,18.53
2022-12-04T17:37:42.056Z,18.10
2022-12-04T17:40:14.517Z,18.03
2022-12-04T17:42:44.526Z,16.40
2022-12-04T17:45:16.370Z,15.90
2022-12-04T17:47:45.956Z,16.87
2022-12-04T17:50:15.644Z,17.03
2022-12-04T17:52:45.251Z,15.47
2022-12-04T17:55:14.957Z,15.27
2022-12-04T17:57:44.955Z,14.53
2022-12-04T18:00:16.056Z,13.80
2022-12-04T18:02:52.883Z,12.63
2022-12-04T18:05:23.064Z,13.33
2022-12-04T18:07:56.333Z,15.50
2022-12-04T18:10:26.391Z,14.93
2022-12-04T18:12:55.889Z,15.73
2022-12-04T18:15:27.475Z,15.77
2022-12-04T18:17:58.215Z,13.97
2022-12-04T18:20:29.083Z,14.83
2022-12-04T18:23:00.261Z,12.97
2022-12-04T18:25:30.095Z,13.67
2022-12-04T18:28:00.922Z,14.10
2022-12-04T18:30:30.559Z,15.43
2022-12-04T18:33:00.109Z,18.70
2022-12-04T18:35:29.697Z,17.97
2022-12-04T18:37:59.558Z,18.77
2022-12-04T18:40:29.559Z,16.27
2022-12-04T18:42:59.045Z,17.00
2022-12-04T18:45:29.740Z,15.53
2022-12-04T18:47:59.245Z,15.50
2022-12-04T18:50:30.063Z,15.65
2022-12-04T18:53:01.986Z,15.23
2022-12-04T18:55:34.954Z,15.85
2022-12-04T18:58:08.477Z,15.57
2022-12-04T19:00:42.440Z,15.37
2022-12-04T19:03:13.093Z,16.77
2022-12-04T19:05:49.598Z,15.23
2022-12-04T19:08:19.349Z,15.43
2022-12-04T19:10:48.922Z,15.17
2022-12-04T19:13:18.850Z,14.67
2022-12-04T19:15:49.204Z,13.90
2022-12-04T19:18:19.559Z,15.20
2022-12-04T19:20:49.162Z,14.73
2022-12-04T19:23:18.915Z,14.87
2022-12-04T19:25:57.108Z,14.93
2022-12-04T19:28:28.100Z,13.83
2022-12-04T19:30:57.719Z,15.20
2022-12-04T19:33:29.063Z,15.00
2022-12-04T19:36:00.438Z,14.77
2022-12-04T19:38:32.244Z,18.93
2022-12-04T19:41:09.856Z,16.00
2022-12-04T19:43:42.813Z,17.37
2022-12-04T19:46:17.083Z,17.10
2022-12-04T19:48:48.555Z,16.60
2022-12-04T19:51:20.311Z,14.90
2022-12-04T19:53:50.382Z,14.95
2022-12-04T19:56:23.946Z,15.13
2022-12-04T19:58:54.986Z,15.73
2022-12-04T20:01:28.130Z,15.95
2022-12-04T20:03:59.490Z,16.13
2022-12-04T20:06:30.944Z,16.37
2022-12-04T20:09:01.854Z,16.07
2022-12-04T20:11:37.808Z,16.13
2022-12-04T20:14:08.566Z,14.70
2022-12-04T20:16:39.708Z,16.47
2022-12-04T20:19:14.508Z,16.67
2022-12-04T20:21:45.150Z,15.33
2022-12-04T20:24:16.701Z,15.30
2022-12-04T20:26:47.423Z,17.50
2022-12-04T20:29:19.252Z,16.10
2022-12-04T20:31:49.023Z,16.70
2022-12-04T20:34:19.806Z,15.67
2022-12-04T20:36:50.240Z,15.43
2022-12-04T20:39:20.568Z,16.23
2022-12-04T20:41:50.407Z,15.40
2022-12-04T20:44:20.634Z,15.50
2022-12-04T20:46:50.516Z,14.53
2022-12-04T20:49:22.319Z,14.77
2022-12-04T20:51:53.081Z,15.53
2022-12-04T20:54:23.660Z,16.17
2022-12-04T20:56:53.419Z,15.77
2022-12-04T20:59:24.407Z,15.47
2022-12-04T21:01:54.864Z,15.13
2022-12-04T21:04:24.439Z,15.67
2022-12-04T21:06:54.035Z,14.83
2022-12-04T21:09:24.845Z,15.73
2022-12-04T21:11:56.048Z,14.63
2022-12-04T21:14:46.982Z,14.47
2022-12-04T21:17:19.129Z,14.60
2022-12-04T21:19:51.063Z,14.07
2022-12-04T21:22:20.899Z,13.70
2022-12-04T21:24:50.440Z,13.37
2022-12-04T21:27:21.414Z,13.47
2022-12-04T21:29:52.080Z,13.55
2022-12-04T21:32:21.800Z,14.53
2022-12-04T21:34:51.701Z,13.53
2022-12-04T21:37:21.403Z,14.07
2022-12-04T21:39:51.123Z,12.97
2022-12-04T21:42:35.905Z,12.13
2022-12-04T21:45:08.250Z,11.63
2022-12-04T21:50:08.769Z,12.97
2022-12-04T21:52:38.258Z,14.05
2022-12-04T21:55:08.575Z,12.60
2022-12-04T21:57:38.233Z,11.43
2022-12-04T22:00:10.317Z,11.57
2022-12-04T22:02:39.813Z,12.07
2022-12-04T22:05:10.431Z,10.97
2022-12-04T22:07:40.082Z,11.40
2022-12-04T22:10:11.354Z,11.57
2022-12-04T22:12:49.705Z,10.87
2022-12-04T22:15:20.176Z,10.70
2022-12-04T22:17:49.649Z,10.93
2022-12-04T22:20:19.415Z,10.50
2022-12-04T22:22:49.345Z,11.47
2022-12-04T22:25:18.919Z,12.17
2022-12-04T22:27:48.472Z,11.43
2022-12-04T22:30:18.904Z,11.17
2022-12-04T22:32:48.440Z,11.50
2022-12-04T22:35:18.494Z,12.10
2022-12-04T22:37:51.132Z,12.17
2022-12-04T22:40:20.872Z,10.77
2022-12-04T22:42:50.469Z,10.17
2022-12-04T22:45:20.042Z,11.57
2022-12-04T22:47:51.911Z,11.30
2022-12-04T22:50:21.492Z,11.83
2022-12-04T22:52:50.923Z,11.93
2022-12-04T22:55:20.579Z,12.10
2022-12-04T22:57:49.953Z,11.10
2022-12-04T23:00:19.934Z,11.10
2022-12-04T23:02:49.478Z,10.63
2022-12-04T23:05:19.075Z,9.93
2022-12-04T23:07:50.538Z,9.87
2022-12-04T23:10:20.006Z,10.40
2022-12-04T23:12:49.451Z,10.03
2022-12-04T23:15:19.104Z,10.53
2022-12-04T23:17:48.629Z,12.00
2022-12-04T23:20:18.871Z,12.60
2022-12-04T23:22:54.292Z,12.47
2022-12-04T23:25:23.965Z,12.70
2022-12-04T23:27:53.694Z,12.80
2022-12-04T23:30:28.368Z,11.97
2022-12-04T23:32:59.515Z,10.70
2022-12-04T23:35:29.800Z,11.60
2022-12-04T23:37:59.261Z,11.90
2022-12-04T23:40:28.909Z,12.80
2022-12-04T23:42:58.475Z,13.57
2022-12-04T23:45:29.056Z,12.00
2022-12-04T23:47:58.580Z,10.47
2022-12-04T23:50:28.144Z,11.07
2022-12-04T23:52:57.658Z,12.60
2022-12-04T23:55:31.146Z,13.67
2022-12-04T23:58:04.202Z,14.03
